createdAt,value
2019-01-02T00:01:11.156Z,70.40
2019-01-02T00:03:52.493Z,70.40
2019-01-02T00:06:33.609Z,69.40
2019-01-02T00:09:15.276Z,69.80
2019-01-02T00:11:56.255Z,70.00
2019-01-02T00:14:37.048Z,70.60
2019-01-02T00:17:18.945Z,71.00
2019-01-02T00:19:59.740Z,72.20
2019-01-02T00:22:40.360Z,74.00
2019-01-02T00:25:22.080Z,72.40
2019-01-02T00:28:03.709Z,72.30
2019-01-02T00:30:45.041Z,72.00
2019-01-02T00:33:26.446Z,71.60
2019-01-02T00:36:07.952Z,71.00
2019-01-02T00:38:49.421Z,70.80
2019-01-02T00:41:29.377Z,70.70
2019-01-02T00:44:10.397Z,70.90
2019-01-02T00:46:52.013Z,71.20
2019-01-02T00:49:33.192Z,71.00
2019-01-02T00:52:13.952Z,70.70
2019-01-02T00:54:55.037Z,70.80
2019-01-02T00:57:36.586Z,70.30
2019-01-02T01:00:17.872Z,70.60
2019-01-02T01:02:58.340Z,70.30
2019-01-02T01:05:39.648Z,70.40
2019-01-02T01:08:20.984Z,70.20
2019-01-02T01:11:03.092Z,69.40
2019-01-02T01:13:44.280Z,69.10
2019-01-02T01:16:25.520Z,69.50
2019-01-02T01:19:06.929Z,69.30
2019-01-02T01:21:48.288Z,69.70
2019-01-02T01:24:29.534Z,69.60
2019-01-02T01:27:11.017Z,69.30
2019-01-02T01:29:52.428Z,68.60
2019-01-02T01:32:33.032Z,68.40
2019-01-02T01:35:13.755Z,67.30
2019-01-02T01:37:55.468Z,66.80
2019-01-02T01:40:36.161Z,66.70
2019-01-02T01:43:16.865Z,65.00
2019-01-02T01:45:57.669Z,65.60
2019-01-02T01:48:38.328Z,64.60
2019-01-02T01:51:19.780Z,65.10
2019-01-02T01:54:00.393Z,64.80
2019-01-02T01:56:42.080Z,65.20
2019-01-02T01:59:22.944Z,64.80
2019-01-02T02:02:04.205Z,65.00
2019-01-02T02:04:43.701Z,65.20
2019-01-02T02:07:24.292Z,65.10
2019-01-02T02:10:05.940Z,65.20
2019-01-02T02:12:47.335Z,64.90
2019-01-02T02:15:28.674Z,65.20
2019-01-02T02:18:10.463Z,65.00
2019-01-02T02:20:51.816Z,64.50
2019-01-02T02:23:33.275Z,62.80
2019-01-02T02:26:14.040Z,62.60
2019-01-02T02:28:55.703Z,61.00
2019-01-02T02:31:37.036Z,60.70
2019-01-02T02:34:17.916Z,59.80
2019-01-02T02:36:59.145Z,59.30
2019-01-02T02:39:40.861Z,59.50
2019-01-02T02:42:22.453Z,59.20
2019-01-02T02:45:03.811Z,59.50
2019-01-02T02:47:45.301Z,59.40
2019-01-02T02:50:26.786Z,59.80
2019-01-02T02:53:08.276Z,58.80
2019-01-02T02:55:49.798Z,58.50
2019-01-02T02:58:31.504Z,58.50
2019-01-02T03:01:12.500Z,58.30
2019-01-02T03:03:53.533Z,58.10
2019-01-02T03:06:34.485Z,57.10
2019-01-02T03:09:15.953Z,57.40
2019-01-02T03:11:57.324Z,56.80
2019-01-02T03:14:36.804Z,56.70
2019-01-02T03:17:18.055Z,57.10
2019-01-02T03:19:59.357Z,56.60
2019-01-02T03:22:40.885Z,56.80
2019-01-02T03:25:22.384Z,57.90
2019-01-02T03:28:03.940Z,56.50
2019-01-02T03:30:44.916Z,56.60
2019-01-02T03:33:24.657Z,56.90
2019-01-02T03:39:13.041Z,56.60
2019-01-02T03:41:54.520Z,56.80
2019-01-02T03:44:35.880Z,56.80
2019-01-02T03:47:16.444Z,56.60
2019-01-02T03:49:57.908Z,55.90
2019-01-02T03:52:38.729Z,56.10
2019-01-02T03:55:19.425Z,55.80
2019-01-02T03:58:00.656Z,55.80
2019-01-02T04:00:41.469Z,55.70
2019-01-02T04:03:22.245Z,55.80
2019-01-02T04:06:02.842Z,55.70
2019-01-02T04:08:43.377Z,55.40
2019-01-02T04:11:23.973Z,54.70
2019-01-02T04:14:03.465Z,54.90
2019-01-02T04:19:38.456Z,55.20
2019-01-02T04:22:19.075Z,55.20
2019-01-02T04:24:59.753Z,54.30
2019-01-02T04:27:41.254Z,54.20
2019-01-02T04:30:21.919Z,54.60
2019-01-02T04:33:02.691Z,54.70
2019-01-02T04:35:44.113Z,54.20
2019-01-02T04:38:24.755Z,54.40
2019-01-02T04:41:05.542Z,54.70
2019-01-02T04:43:46.885Z,55.20
2019-01-02T04:46:28.140Z,56.20
2019-01-02T04:49:08.829Z,55.30
2019-01-02T04:51:50.209Z,55.60
2019-01-02T04:54:30.936Z,55.60
2019-01-02T04:57:11.476Z,55.60
2019-01-02T04:59:52.118Z,55.90
2019-01-02T05:02:31.817Z,55.80
2019-01-02T05:08:20.044Z,55.60
2019-01-02T05:11:01.292Z,57.10
2019-01-02T05:13:42.129Z,56.00
2019-01-02T05:16:21.588Z,55.80
2019-01-02T05:19:09.925Z,55.40
2019-01-02T05:21:51.112Z,54.90
2019-01-02T05:24:32.218Z,55.00
2019-01-02T05:27:12.811Z,54.90
2019-01-02T05:29:54.155Z,55.30
2019-01-02T05:32:34.972Z,54.90
2019-01-02T05:35:15.653Z,55.00
2019-01-02T05:37:56.964Z,55.00
2019-01-02T05:40:36.380Z,55.00
2019-01-02T05:43:17.628Z,54.80
2019-01-02T05:45:59.001Z,54.90
2019-01-02T05:48:40.254Z,54.70
2019-01-02T05:51:21.500Z,55.20
2019-01-02T05:54:02.964Z,58.40
2019-01-02T05:56:42.436Z,61.00
2019-01-02T06:02:25.036Z,63.30
2019-01-02T06:05:06.456Z,63.90
2019-01-02T06:07:47.268Z,64.90
2019-01-02T06:10:27.948Z,65.40
2019-01-02T06:13:09.175Z,65.00
2019-01-02T06:15:50.264Z,64.70
2019-01-02T06:18:31.102Z,65.50
2019-01-02T06:21:12.569Z,65.90
2019-01-02T06:23:53.465Z,66.00
2019-01-02T06:26:34.196Z,66.50
2019-01-02T06:29:15.553Z,67.40
2019-01-02T06:31:56.184Z,67.70
2019-01-02T06:34:36.952Z,67.70
2019-01-02T06:37:18.404Z,68.00
2019-01-02T06:39:59.779Z,69.00
2019-01-02T06:42:41.235Z,69.50
2019-01-02T06:45:21.770Z,69.80
2019-01-02T06:48:02.296Z,70.20
2019-01-02T06:50:42.853Z,70.70
2019-01-02T06:53:24.316Z,71.00
2019-01-02T06:56:05.656Z,72.30
2019-01-02T06:58:46.378Z,71.90
2019-01-02T07:01:27.084Z,71.70
2019-01-02T07:04:07.880Z,71.90
2019-01-02T07:06:48.449Z,71.80
2019-01-02T07:09:29.444Z,72.00
2019-01-02T07:12:10.725Z,72.50
2019-01-02T07:14:51.318Z,72.90
2019-01-02T07:17:32.012Z,73.20
2019-01-02T07:20:13.484Z,73.40
2019-01-02T07:22:54.048Z,73.20
2019-01-02T07:25:33.648Z,73.30
2019-01-02T07:31:21.897Z,73.40
2019-01-02T07:34:02.669Z,73.70
2019-01-02T07:36:43.944Z,73.90
2019-01-02T07:39:25.261Z,74.30
2019-01-02T07:42:06.925Z,74.10
2019-01-02T07:44:48.176Z,74.30
2019-01-02T07:47:29.480Z,74.30
2019-01-02T07:50:10.137Z,74.70
2019-01-02T07:52:50.612Z,75.10
2019-01-02T07:59:14.713Z,75.40
2019-01-02T08:01:55.849Z,75.10
2019-01-02T08:04:36.633Z,75.00
2019-01-02T08:07:17.901Z,74.70
2019-01-02T08:09:58.437Z,74.30
2019-01-02T08:12:39.833Z,74.10
2019-01-02T08:15:20.724Z,74.10
2019-01-02T08:18:01.504Z,74.00
2019-01-02T08:20:42.950Z,74.00
2019-01-02T08:23:24.260Z,74.20
2019-01-02T08:26:04.888Z,74.10
2019-01-02T08:28:45.466Z,74.10
2019-01-02T08:34:40.220Z,74.20
2019-01-02T08:37:21.442Z,74.60
2019-01-02T08:40:02.213Z,74.70
2019-01-02T08:42:43.586Z,74.40
2019-01-02T08:45:24.197Z,74.40
2019-01-02T08:48:04.904Z,74.50
2019-01-02T08:50:45.525Z,74.50
2019-01-02T08:53:26.161Z,74.90
2019-01-02T08:56:06.777Z,74.30
2019-01-02T08:58:47.608Z,73.90
2019-01-02T09:01:28.184Z,73.00
2019-01-02T09:04:09.509Z,72.60
2019-01-02T09:06:50.184Z,72.70
2019-01-02T09:09:59.913Z,73.20
2019-01-02T09:13:07.314Z,73.60
2019-01-02T09:19:09.455Z,70.60
2019-01-02T09:21:50.433Z,69.60
2019-01-02T09:28:09.468Z,73.90
2019-01-02T09:31:16.873Z,74.30
2019-01-02T09:33:58.361Z,75.20
2019-01-02T09:36:39.266Z,75.80
2019-01-02T09:39:20.109Z,75.20
2019-01-02T09:42:00.556Z,74.50
2019-01-02T09:44:41.310Z,73.40
2019-01-02T09:47:21.979Z,72.70
2019-01-02T09:50:03.138Z,70.20
2019-01-02T09:52:43.892Z,69.10
2019-01-02T09:55:44.482Z,67.60
2019-01-02T09:58:51.880Z,65.40
2019-01-02T10:01:32.844Z,65.60
2019-01-02T10:04:14.310Z,63.40
2019-01-02T10:06:55.175Z,59.00
2019-01-02T10:09:36.028Z,58.60
2019-01-02T10:12:16.568Z,58.80
2019-01-02T10:14:57.980Z,58.20
2019-01-02T10:17:39.240Z,56.60
2019-01-02T10:20:20.035Z,57.20
2019-01-02T10:23:01.472Z,57.10
2019-01-02T10:25:42.014Z,56.80
2019-01-02T10:28:23.271Z,57.70
2019-01-02T10:31:04.064Z,58.50
2019-01-02T10:33:44.748Z,59.50
2019-01-02T10:36:25.961Z,61.00
2019-01-02T10:39:06.668Z,61.90
2019-01-02T10:41:47.990Z,62.60
2019-01-02T10:44:28.512Z,62.70
2019-01-02T10:47:09.384Z,62.70
2019-01-02T10:49:50.025Z,65.10
2019-01-02T10:52:31.437Z,67.90
2019-01-02T10:55:12.040Z,68.80
2019-01-02T10:57:52.549Z,70.60
2019-01-02T11:00:33.248Z,72.00
2019-01-02T11:03:14.632Z,72.20
2019-01-02T11:05:56.182Z,71.20
2019-01-02T11:08:37.334Z,70.50
2019-01-02T11:11:18.622Z,70.20
2019-01-02T11:13:59.565Z,72.20
2019-01-02T11:16:40.727Z,73.40
2019-01-02T11:19:21.511Z,72.90
2019-01-02T11:22:02.341Z,74.10
2019-01-02T11:24:42.972Z,74.30
2019-01-02T11:27:23.652Z,74.90
2019-01-02T11:30:05.000Z,75.70
2019-01-02T11:32:46.379Z,75.00
2019-01-02T11:35:27.073Z,73.90
2019-01-02T11:41:54.311Z,72.80
2019-01-02T11:44:35.120Z,70.20
2019-01-02T11:47:15.816Z,65.50
2019-01-02T11:49:57.190Z,65.10
2019-01-02T11:52:38.537Z,63.70
2019-01-02T11:55:19.252Z,61.50
2019-01-02T11:57:59.828Z,59.90
2019-01-02T12:00:40.573Z,59.00
2019-01-02T12:03:21.021Z,58.50
2019-01-02T12:06:01.762Z,59.20
2019-01-02T12:08:42.352Z,58.80
2019-01-02T12:11:23.705Z,58.60
2019-01-02T12:14:04.841Z,60.10
2019-01-02T12:16:46.139Z,61.60
2019-01-02T12:19:26.819Z,62.70
2019-01-02T12:22:08.177Z,61.30
2019-01-02T12:24:49.436Z,60.50
2019-01-02T12:27:30.769Z,58.50
2019-01-02T12:30:11.548Z,57.70
2019-01-02T12:32:52.100Z,58.40
2019-01-02T12:35:32.724Z,57.60
2019-01-02T12:38:13.544Z,57.30
2019-01-02T12:40:54.900Z,57.70
2019-01-02T12:43:36.208Z,57.90
2019-01-02T12:46:16.787Z,57.40
2019-01-02T12:48:58.190Z,58.80
2019-01-02T12:51:38.756Z,59.00
2019-01-02T12:54:19.364Z,58.10
2019-01-02T12:57:00.143Z,58.00
2019-01-02T12:59:40.896Z,57.40
2019-01-02T13:02:21.830Z,58.20
2019-01-02T13:05:02.787Z,57.80
2019-01-02T13:07:44.673Z,58.20
2019-01-02T13:10:25.788Z,58.00
2019-01-02T13:13:07.252Z,58.30
2019-01-02T13:15:48.068Z,59.20
2019-01-02T13:18:29.384Z,57.50
2019-01-02T13:21:10.664Z,58.00
2019-01-02T13:23:52.468Z,56.50
2019-01-02T13:26:33.649Z,57.40
2019-01-02T13:29:14.196Z,56.10
2019-01-02T13:31:55.082Z,56.50
2019-01-02T13:34:35.668Z,56.60
2019-01-02T13:37:17.012Z,55.80
2019-01-02T13:39:58.400Z,54.80
2019-01-02T13:42:39.148Z,55.60
2019-01-02T13:45:19.797Z,55.00
2019-01-02T13:48:00.304Z,55.40
2019-01-02T13:50:41.658Z,55.00
2019-01-02T13:53:22.622Z,54.60
2019-01-02T13:56:04.048Z,54.00
2019-01-02T13:58:45.247Z,55.00
2019-01-02T14:01:26.396Z,54.80
2019-01-02T14:04:07.092Z,55.50
2019-01-02T14:06:48.155Z,55.50
2019-01-02T14:09:29.658Z,55.40
2019-01-02T14:12:10.431Z,56.40
2019-01-02T14:14:51.654Z,55.40
2019-01-02T14:17:33.123Z,54.90
2019-01-02T14:20:13.758Z,54.70
2019-01-02T14:22:54.532Z,55.80
2019-01-02T14:25:35.104Z,55.60
2019-01-02T14:28:15.741Z,54.70
2019-01-02T14:30:56.619Z,55.60
2019-01-02T14:33:38.094Z,55.60
2019-01-02T14:36:19.360Z,56.00
2019-01-02T14:39:00.858Z,56.20
2019-01-02T14:41:42.213Z,55.90
2019-01-02T14:44:22.793Z,55.60
2019-01-02T14:47:03.744Z,55.60
2019-01-02T14:49:45.552Z,56.30
2019-01-02T14:52:25.084Z,55.50
2019-01-02T14:58:13.944Z,57.00
2019-01-02T15:00:53.345Z,57.40
2019-01-02T15:03:34.189Z,57.40
2019-01-02T15:06:15.052Z,57.70
2019-01-02T15:08:55.809Z,58.50
2019-01-02T15:11:36.920Z,57.20
2019-01-02T15:14:18.225Z,57.20
2019-01-02T15:16:59.519Z,57.80
2019-01-02T15:19:41.093Z,58.10
2019-01-02T15:22:21.692Z,58.00
2019-01-02T15:25:03.120Z,58.90
2019-01-02T15:27:44.544Z,59.20
2019-01-02T15:30:25.192Z,59.50
2019-01-02T15:33:06.304Z,59.70
2019-01-02T15:35:49.051Z,59.90
2019-01-02T15:38:30.380Z,59.60
2019-01-02T15:41:11.200Z,60.70
2019-01-02T15:43:51.688Z,61.20
2019-01-02T15:46:32.355Z,62.40
2019-01-02T15:49:13.732Z,62.60
2019-01-02T15:51:54.369Z,62.40
2019-01-02T15:54:35.197Z,62.10
2019-01-02T15:57:16.548Z,61.80
2019-01-02T15:59:58.071Z,62.20
2019-01-02T16:02:38.743Z,62.00
2019-01-02T16:05:19.828Z,61.70
2019-01-02T16:08:00.373Z,61.30
2019-01-02T16:10:41.137Z,60.80
2019-01-02T16:13:22.568Z,60.60
2019-01-02T16:16:01.968Z,60.80
2019-01-02T16:18:42.774Z,60.70
2019-01-02T16:21:23.590Z,60.60
2019-01-02T16:24:04.706Z,60.80
2019-01-02T16:26:44.165Z,60.60
2019-01-02T16:29:25.107Z,60.70
2019-01-02T16:32:05.920Z,60.30
2019-01-02T16:34:47.303Z,60.30
2019-01-02T16:37:27.852Z,60.10
2019-01-02T16:40:09.076Z,59.80
2019-01-02T16:42:49.608Z,60.00
2019-01-02T16:45:31.030Z,60.20
2019-01-02T16:48:11.824Z,60.50
2019-01-02T16:50:51.305Z,60.50
2019-01-02T16:53:39.676Z,60.90
2019-01-02T16:56:20.671Z,60.30
2019-01-02T16:59:02.131Z,60.60
2019-01-02T17:01:43.428Z,61.30
2019-01-02T17:04:24.101Z,61.30
2019-01-02T17:07:05.456Z,60.80
2019-01-02T17:09:46.065Z,60.90
2019-01-02T17:12:26.608Z,60.60
2019-01-02T17:15:07.169Z,61.00
2019-01-02T17:17:48.486Z,60.40
2019-01-02T17:20:29.164Z,60.60
2019-01-02T17:23:10.407Z,61.10
2019-01-02T17:25:51.790Z,61.40
2019-01-02T17:28:32.393Z,60.50
2019-01-02T17:31:13.128Z,61.00
2019-01-02T17:33:54.137Z,59.90
2019-01-02T17:36:35.548Z,59.30
2019-01-02T17:39:16.160Z,58.60
2019-01-02T17:41:56.789Z,57.90
2019-01-02T17:44:38.309Z,57.20
2019-01-02T17:47:19.018Z,57.40
2019-01-02T17:50:00.376Z,56.60
2019-01-02T17:52:41.329Z,58.00
2019-01-02T17:55:22.017Z,57.70
2019-01-02T17:58:02.955Z,57.60
2019-01-02T18:00:44.528Z,57.30
2019-01-02T18:03:25.130Z,57.40
2019-01-02T18:06:11.030Z,57.60
2019-01-02T18:08:49.396Z,57.80
2019-01-02T18:11:30.644Z,58.40
2019-01-02T18:14:11.996Z,58.00
2019-01-02T18:16:53.285Z,57.30
2019-01-02T18:19:34.022Z,57.90
2019-01-02T18:22:14.903Z,57.90
2019-01-02T18:24:55.623Z,57.10
2019-01-02T18:27:36.214Z,57.20
2019-01-02T18:30:16.892Z,58.30
2019-01-02T18:32:58.313Z,58.20
2019-01-02T18:35:38.876Z,58.20
2019-01-02T18:38:19.393Z,58.00
2019-01-02T18:40:59.949Z,57.70
2019-01-02T18:43:40.678Z,58.60
2019-01-02T18:46:21.292Z,58.70
2019-01-02T18:49:02.016Z,58.20
2019-01-02T18:51:42.832Z,57.50
2019-01-02T18:54:23.693Z,57.70
2019-01-02T18:57:05.004Z,57.10
2019-01-02T18:59:45.903Z,56.90
2019-01-02T19:02:26.596Z,56.70
2019-01-02T19:05:07.214Z,57.40
2019-01-02T19:07:48.607Z,57.20
2019-01-02T19:10:30.006Z,57.90
2019-01-02T19:13:10.649Z,58.40
2019-01-02T19:15:51.185Z,58.70
2019-01-02T19:18:32.664Z,59.60
2019-01-02T19:21:13.255Z,59.70
2019-01-02T19:23:53.905Z,59.20
2019-01-02T19:26:33.440Z,60.00
2019-01-02T19:29:21.792Z,59.80
2019-01-02T19:32:02.465Z,59.70
2019-01-02T19:34:43.544Z,60.60
2019-01-02T19:37:25.073Z,61.00
2019-01-02T19:40:05.966Z,60.10
2019-01-02T19:42:46.557Z,60.80
2019-01-02T19:45:28.024Z,61.30
2019-01-02T19:48:09.290Z,61.10
2019-01-02T19:50:50.661Z,60.80
2019-01-02T19:53:31.606Z,60.40
2019-01-02T19:56:12.276Z,60.50
2019-01-02T19:58:53.004Z,59.60
2019-01-02T20:01:33.674Z,59.00
2019-01-02T20:04:15.469Z,57.70
2019-01-02T20:06:56.254Z,57.10
2019-01-02T20:09:37.532Z,56.80
2019-01-02T20:12:18.224Z,56.90
2019-01-02T20:14:57.744Z,57.70
2019-01-02T20:17:39.228Z,58.00
2019-01-02T20:20:20.008Z,58.10
2019-01-02T20:23:00.715Z,57.50
2019-01-02T20:25:41.432Z,56.00
2019-01-02T20:28:22.686Z,55.10
2019-01-02T20:31:03.830Z,55.50
2019-01-02T20:33:44.657Z,55.70
2019-01-02T20:36:26.170Z,55.80
2019-01-02T20:39:06.880Z,56.40
2019-01-02T20:41:47.541Z,57.10
2019-01-02T20:44:28.172Z,56.80
2019-01-02T20:47:09.073Z,56.40
2019-01-02T20:49:49.718Z,56.30
2019-01-02T20:52:30.367Z,55.80
2019-01-02T20:55:10.967Z,54.90
2019-01-02T20:57:52.612Z,54.10
2019-01-02T21:00:33.259Z,52.80
2019-01-02T21:03:13.832Z,53.10
2019-01-02T21:05:55.216Z,53.80
2019-01-02T21:08:36.242Z,53.20
2019-01-02T21:11:17.754Z,53.40
2019-01-02T21:13:58.404Z,53.40
2019-01-02T21:16:38.945Z,53.90
2019-01-02T21:19:20.288Z,53.40
2019-01-02T21:22:01.171Z,54.40
2019-01-02T21:24:41.893Z,55.60
2019-01-02T21:27:22.681Z,56.50
2019-01-02T21:30:03.484Z,57.00
2019-01-02T21:32:43.994Z,57.20
2019-01-02T21:35:25.300Z,57.60
2019-01-02T21:38:06.668Z,57.50
2019-01-02T21:40:47.382Z,57.60
2019-01-02T21:43:28.876Z,57.60
2019-01-02T21:46:09.868Z,57.80
2019-01-02T21:48:51.241Z,58.10
2019-01-02T21:51:31.968Z,57.60
2019-01-02T21:54:12.763Z,58.10
2019-01-02T21:56:53.773Z,58.20
2019-01-02T21:59:35.080Z,58.20
2019-01-02T22:02:15.897Z,58.40
2019-01-02T22:04:56.582Z,57.90
2019-01-02T22:07:37.442Z,57.90
2019-01-02T22:10:18.135Z,58.20
2019-01-02T22:12:58.770Z,57.70
2019-01-02T22:15:39.346Z,57.30
2019-01-02T22:18:20.034Z,57.30
2019-01-02T22:21:00.709Z,57.80
2019-01-02T22:23:41.443Z,61.50
2019-01-02T22:26:21.980Z,66.50
2019-01-02T22:29:03.408Z,70.60
2019-01-02T22:31:44.125Z,70.90
2019-01-02T22:34:23.600Z,70.20
2019-01-02T22:40:12.513Z,71.40
2019-01-02T22:42:53.085Z,72.30
2019-01-02T22:45:33.665Z,73.40
2019-01-02T22:48:14.857Z,73.70
2019-01-02T22:50:56.244Z,73.90
2019-01-02T22:53:37.640Z,73.20
2019-01-02T22:56:18.417Z,72.50
2019-01-02T22:58:59.108Z,71.00
2019-01-02T23:01:45.056Z,69.50
2019-01-02T23:04:45.142Z,70.10
2019-01-02T23:07:44.776Z,68.80
2019-01-02T23:10:45.111Z,67.90
2019-01-02T23:13:45.452Z,66.40
2019-01-02T23:16:44.904Z,64.30
2019-01-02T23:19:44.561Z,63.20
2019-01-02T23:22:44.150Z,61.90
2019-01-02T23:25:44.486Z,60.20
2019-01-02T23:31:53.212Z,58.40
2019-01-02T23:34:53.242Z,56.50
2019-01-02T23:41:16.842Z,55.60
2019-01-02T23:44:16.392Z,55.30
2019-01-02T23:47:19.768Z,56.60
2019-01-02T23:50:20.003Z,55.40
2019-01-02T23:53:20.280Z,55.20
2019-01-02T23:56:20.607Z,55.70
2019-01-02T23:59:20.918Z,54.70
